sensor_id;sensor_type;location;lat;lon;timestamp;temperature;humidity
14555;DHT22;7364;50.870;4.722;2023-02-28T00:01:18;2.40;99.90
14555;DHT22;7364;50.870;4.722;2023-02-28T00:03:47;2.40;99.90
14555;DHT22;7364;50.870;4.722;2023-02-28T00:06:15;2.40;99.90
14555;DHT22;7364;50.870;4.722;2023-02-28T00:08:42;2.40;99.90
14555;DHT22;7364;50.870;4.722;2023-02-28T00:11:11;2.40;99.90
14555;DHT22;7364;50.870;4.722;2023-02-28T00:13:40;2.40;99.90
14555;DHT22;7364;50.870;4.722;2023-02-28T00:16:09;2.40;99.90
14555;DHT22;7364;50.870;4.722;2023-02-28T00:18:37;2.40;99.90
14555;DHT22;7364;50.870;4.722;2023-02-28T00:21:06;2.30;99.90
14555;DHT22;7364;50.870;4.722;2023-02-28T00:23:34;2.30;99.90
14555;DHT22;7364;50.870;4.722;2023-02-28T00:26:02;2.30;99.90
14555;DHT22;7364;50.870;4.722;2023-02-28T00:28:29;2.40;99.90
14555;DHT22;7364;50.870;4.722;2023-02-28T00:30:56;2.40;99.90
14555;DHT22;7364;50.870;4.722;2023-02-28T00:33:26;2.40;99.90
14555;DHT22;7364;50.870;4.722;2023-02-28T00:36:14;2.40;99.90
14555;DHT22;7364;50.870;4.722;2023-02-28T00:38:41;2.40;99.90
14555;DHT22;7364;50.870;4.722;2023-02-28T00:41:08;2.30;99.90
14555;DHT22;7364;50.870;4.722;2023-02-28T00:43:37;2.30;99.90
14555;DHT22;7364;50.870;4.722;2023-02-28T00:46:05;2.20;99.90
14555;DHT22;7364;50.870;4.722;2023-02-28T00:48:32;2.20;99.90
14555;DHT22;7364;50.870;4.722;2023-02-28T00:51:01;2.10;99.90
14555;DHT22;7364;50.870;4.722;2023-02-28T00:53:30;2.00;99.90
14555;DHT22;7364;50.870;4.722;2023-02-28T00:55:58;2.00;99.90
14555;DHT22;7364;50.870;4.722;2023-02-28T00:58:25;1.90;99.90
14555;DHT22;7364;50.870;4.722;2023-02-28T01:00:52;1.90;99.90
14555;DHT22;7364;50.870;4.722;2023-02-28T01:03:20;1.90;99.90
14555;DHT22;7364;50.870;4.722;2023-02-28T01:05:48;1.80;99.90
14555;DHT22;7364;50.870;4.722;2023-02-28T01:08:15;1.80;99.90
14555;DHT22;7364;50.870;4.722;2023-02-28T01:10:44;1.80;99.90
14555;DHT22;7364;50.870;4.722;2023-02-28T01:13:11;1.80;99.90
14555;DHT22;7364;50.870;4.722;2023-02-28T01:15:39;1.70;99.90
14555;DHT22;7364;50.870;4.722;2023-02-28T01:18:08;1.70;99.90
14555;DHT22;7364;50.870;4.722;2023-02-28T01:20:38;1.60;99.90
14555;DHT22;7364;50.870;4.722;2023-02-28T01:23:06;1.60;99.90
14555;DHT22;7364;50.870;4.722;2023-02-28T01:25:34;1.50;99.90
14555;DHT22;7364;50.870;4.722;2023-02-28T01:28:03;1.50;99.90
14555;DHT22;7364;50.870;4.722;2023-02-28T01:30:31;1.50;99.90
14555;DHT22;7364;50.870;4.722;2023-02-28T01:32:59;1.40;99.90
14555;DHT22;7364;50.870;4.722;2023-02-28T01:35:26;1.40;99.90
14555;DHT22;7364;50.870;4.722;2023-02-28T01:37:53;1.50;99.90
14555;DHT22;7364;50.870;4.722;2023-02-28T01:40:22;1.50;99.90
14555;DHT22;7364;50.870;4.722;2023-02-28T01:42:50;1.50;99.90
14555;DHT22;7364;50.870;4.722;2023-02-28T01:45:22;1.50;99.90
14555;DHT22;7364;50.870;4.722;2023-02-28T01:47:54;1.50;99.90
14555;DHT22;7364;50.870;4.722;2023-02-28T01:50:24;1.50;99.90
14555;DHT22;7364;50.870;4.722;2023-02-28T01:52:56;1.50;99.90
14555;DHT22;7364;50.870;4.722;2023-02-28T01:55:25;1.40;99.90
14555;DHT22;7364;50.870;4.722;2023-02-28T01:57:56;1.40;99.90
14555;DHT22;7364;50.870;4.722;2023-02-28T02:00:26;1.40;99.90
14555;DHT22;7364;50.870;4.722;2023-02-28T02:02:56;1.40;99.90
14555;DHT22;7364;50.870;4.722;2023-02-28T02:05:27;1.30;99.90
14555;DHT22;7364;50.870;4.722;2023-02-28T02:08:00;1.30;99.90
14555;DHT22;7364;50.870;4.722;2023-02-28T02:10:32;1.30;99.90
14555;DHT22;7364;50.870;4.722;2023-02-28T02:13:19;1.20;99.90
14555;DHT22;7364;50.870;4.722;2023-02-28T02:16:01;1.20;99.90
14555;DHT22;7364;50.870;4.722;2023-02-28T02:18:36;1.20;99.90
14555;DHT22;7364;50.870;4.722;2023-02-28T02:27:39;1.10;99.90
14555;DHT22;7364;50.870;4.722;2023-02-28T02:30:35;1.10;99.90
14555;DHT22;7364;50.870;4.722;2023-02-28T02:33:35;1.10;99.90
14555;DHT22;7364;50.870;4.722;2023-02-28T02:36:17;1.10;99.90
14555;DHT22;7364;50.870;4.722;2023-02-28T02:38:50;1.00;99.90
14555;DHT22;7364;50.870;4.722;2023-02-28T02:41:23;1.00;99.90
14555;DHT22;7364;50.870;4.722;2023-02-28T02:43:54;1.00;99.90
14555;DHT22;7364;50.870;4.722;2023-02-28T02:46:28;0.90;99.90
14555;DHT22;7364;50.870;4.722;2023-02-28T02:48:58;0.90;99.90
14555;DHT22;7364;50.870;4.722;2023-02-28T02:51:31;0.90;99.90
14555;DHT22;7364;50.870;4.722;2023-02-28T02:54:03;0.90;99.90
14555;DHT22;7364;50.870;4.722;2023-02-28T02:56:33;0.90;99.90
14555;DHT22;7364;50.870;4.722;2023-02-28T02:59:04;0.90;99.90
14555;DHT22;7364;50.870;4.722;2023-02-28T03:01:32;0.90;99.90
14555;DHT22;7364;50.870;4.722;2023-02-28T03:04:04;0.90;99.90
14555;DHT22;7364;50.870;4.722;2023-02-28T03:06:34;0.90;99.90
14555;DHT22;7364;50.870;4.722;2023-02-28T03:09:02;0.90;99.90
14555;DHT22;7364;50.870;4.722;2023-02-28T03:11:30;0.80;99.90
14555;DHT22;7364;50.870;4.722;2023-02-28T03:14:16;0.80;99.90
14555;DHT22;7364;50.870;4.722;2023-02-28T03:17:00;0.70;99.90
14555;DHT22;7364;50.870;4.722;2023-02-28T03:19:51;0.80;99.90
14555;DHT22;7364;50.870;4.722;2023-02-28T03:22:37;0.70;99.90
14555;DHT22;7364;50.870;4.722;2023-02-28T03:25:11;0.70;99.90
14555;DHT22;7364;50.870;4.722;2023-02-28T03:27:46;0.60;99.90
14555;DHT22;7364;50.870;4.722;2023-02-28T03:30:21;0.60;99.90
14555;DHT22;7364;50.870;4.722;2023-02-28T03:32:54;0.60;99.90
14555;DHT22;7364;50.870;4.722;2023-02-28T03:35:25;0.60;99.90
14555;DHT22;7364;50.870;4.722;2023-02-28T03:37:59;0.70;99.90
14555;DHT22;7364;50.870;4.722;2023-02-28T03:40:31;0.70;99.90
14555;DHT22;7364;50.870;4.722;2023-02-28T03:43:04;0.80;99.90
14555;DHT22;7364;50.870;4.722;2023-02-28T03:45:36;0.80;99.90
14555;DHT22;7364;50.870;4.722;2023-02-28T03:48:11;0.80;99.90
14555;DHT22;7364;50.870;4.722;2023-02-28T03:50:41;0.70;99.90
14555;DHT22;7364;50.870;4.722;2023-02-28T03:53:13;0.70;99.90
14555;DHT22;7364;50.870;4.722;2023-02-28T03:55:44;0.80;99.90
14555;DHT22;7364;50.870;4.722;2023-02-28T03:58:17;0.80;99.90
14555;DHT22;7364;50.870;4.722;2023-02-28T04:00:52;0.80;99.90
14555;DHT22;7364;50.870;4.722;2023-02-28T04:03:22;0.70;99.90
14555;DHT22;7364;50.870;4.722;2023-02-28T04:05:51;0.60;99.90
14555;DHT22;7364;50.870;4.722;2023-02-28T04:08:21;0.50;99.90
14555;DHT22;7364;50.870;4.722;2023-02-28T04:10:53;0.50;99.90
14555;DHT22;7364;50.870;4.722;2023-02-28T04:13:23;0.50;99.90
14555;DHT22;7364;50.870;4.722;2023-02-28T04:15:50;0.50;99.90
14555;DHT22;7364;50.870;4.722;2023-02-28T04:18:17;0.50;99.90
14555;DHT22;7364;50.870;4.722;2023-02-28T04:20:44;0.60;99.90
14555;DHT22;7364;50.870;4.722;2023-02-28T04:23:12;0.60;99.90
14555;DHT22;7364;50.870;4.722;2023-02-28T04:25:41;0.60;99.90
14555;DHT22;7364;50.870;4.722;2023-02-28T04:28:08;0.80;99.90
14555;DHT22;7364;50.870;4.722;2023-02-28T04:30:37;0.80;99.90
14555;DHT22;7364;50.870;4.722;2023-02-28T04:33:05;0.90;99.90
14555;DHT22;7364;50.870;4.722;2023-02-28T04:35:32;1.00;99.90
14555;DHT22;7364;50.870;4.722;2023-02-28T04:37:59;0.90;99.90
14555;DHT22;7364;50.870;4.722;2023-02-28T04:40:27;0.90;99.90
14555;DHT22;7364;50.870;4.722;2023-02-28T04:42:58;0.90;99.90
14555;DHT22;7364;50.870;4.722;2023-02-28T04:45:25;0.90;99.90
14555;DHT22;7364;50.870;4.722;2023-02-28T04:47:55;0.70;99.90
14555;DHT22;7364;50.870;4.722;2023-02-28T04:50:23;0.50;99.90
14555;DHT22;7364;50.870;4.722;2023-02-28T04:52:50;0.50;99.90
14555;DHT22;7364;50.870;4.722;2023-02-28T04:55:18;0.50;99.90
14555;DHT22;7364;50.870;4.722;2023-02-28T04:57:45;0.50;99.90
14555;DHT22;7364;50.870;4.722;2023-02-28T05:00:14;0.50;99.90
14555;DHT22;7364;50.870;4.722;2023-02-28T05:02:42;0.40;99.90
14555;DHT22;7364;50.870;4.722;2023-02-28T05:05:09;0.40;99.90
14555;DHT22;7364;50.870;4.722;2023-02-28T05:07:42;0.50;99.90
14555;DHT22;7364;50.870;4.722;2023-02-28T05:10:11;0.50;99.90
14555;DHT22;7364;50.870;4.722;2023-02-28T05:12:38;0.50;99.90
14555;DHT22;7364;50.870;4.722;2023-02-28T05:15:07;0.50;99.90
14555;DHT22;7364;50.870;4.722;2023-02-28T05:17:37;0.60;99.90
14555;DHT22;7364;50.870;4.722;2023-02-28T05:20:05;0.60;99.90
14555;DHT22;7364;50.870;4.722;2023-02-28T05:22:33;0.70;99.90
14555;DHT22;7364;50.870;4.722;2023-02-28T05:25:00;0.70;99.90
14555;DHT22;7364;50.870;4.722;2023-02-28T05:27:27;0.80;99.90
14555;DHT22;7364;50.870;4.722;2023-02-28T05:29:54;0.80;99.90
14555;DHT22;7364;50.870;4.722;2023-02-28T05:32:22;0.70;99.90
14555;DHT22;7364;50.870;4.722;2023-02-28T05:34:51;0.60;99.90
14555;DHT22;7364;50.870;4.722;2023-02-28T05:37:18;0.60;99.90
14555;DHT22;7364;50.870;4.722;2023-02-28T05:39:45;0.50;99.90
14555;DHT22;7364;50.870;4.722;2023-02-28T05:42:12;0.50;99.90
14555;DHT22;7364;50.870;4.722;2023-02-28T05:44:39;0.50;99.90
14555;DHT22;7364;50.870;4.722;2023-02-28T05:47:07;0.40;99.90
14555;DHT22;7364;50.870;4.722;2023-02-28T05:49:34;0.40;99.90
14555;DHT22;7364;50.870;4.722;2023-02-28T05:52:04;0.40;99.90
14555;DHT22;7364;50.870;4.722;2023-02-28T05:54:31;0.40;99.90
14555;DHT22;7364;50.870;4.722;2023-02-28T05:56:58;0.40;99.90
14555;DHT22;7364;50.870;4.722;2023-02-28T05:59:25;0.40;99.90
14555;DHT22;7364;50.870;4.722;2023-02-28T06:01:53;0.40;99.90
14555;DHT22;7364;50.870;4.722;2023-02-28T06:04:21;0.40;99.90
14555;DHT22;7364;50.870;4.722;2023-02-28T06:06:49;0.40;99.90
14555;DHT22;7364;50.870;4.722;2023-02-28T06:09:18;0.40;99.90
14555;DHT22;7364;50.870;4.722;2023-02-28T06:11:46;0.40;99.90
14555;DHT22;7364;50.870;4.722;2023-02-28T06:14:15;0.40;99.90
14555;DHT22;7364;50.870;4.722;2023-02-28T06:16:43;0.40;99.90
14555;DHT22;7364;50.870;4.722;2023-02-28T06:19:10;0.50;99.90
14555;DHT22;7364;50.870;4.722;2023-02-28T06:21:38;0.50;99.90
14555;DHT22;7364;50.870;4.722;2023-02-28T06:24:06;0.60;99.90
14555;DHT22;7364;50.870;4.722;2023-02-28T06:26:36;0.60;99.90
14555;DHT22;7364;50.870;4.722;2023-02-28T06:29:03;0.50;99.90
14555;DHT22;7364;50.870;4.722;2023-02-28T06:31:30;0.40;99.90
14555;DHT22;7364;50.870;4.722;2023-02-28T06:33:58;0.40;99.90
14555;DHT22;7364;50.870;4.722;2023-02-28T06:36:25;0.40;99.90
14555;DHT22;7364;50.870;4.722;2023-02-28T06:38:52;0.30;99.90
14555;DHT22;7364;50.870;4.722;2023-02-28T06:41:22;0.30;99.90
14555;DHT22;7364;50.870;4.722;2023-02-28T06:43:51;0.40;99.90
14555;DHT22;7364;50.870;4.722;2023-02-28T06:46:19;0.50;99.90
14555;DHT22;7364;50.870;4.722;2023-02-28T06:48:46;0.60;99.90
14555;DHT22;7364;50.870;4.722;2023-02-28T06:51:16;0.70;99.90
14555;DHT22;7364;50.870;4.722;2023-02-28T06:53:44;0.70;99.90
14555;DHT22;7364;50.870;4.722;2023-02-28T06:56:13;0.70;99.90
14555;DHT22;7364;50.870;4.722;2023-02-28T06:58:41;0.70;99.90
14555;DHT22;7364;50.870;4.722;2023-02-28T07:01:10;0.80;99.90
14555;DHT22;7364;50.870;4.722;2023-02-28T07:03:38;0.90;99.90
14555;DHT22;7364;50.870;4.722;2023-02-28T07:06:05;1.00;99.90
14555;DHT22;7364;50.870;4.722;2023-02-28T07:08:33;1.00;99.90
14555;DHT22;7364;50.870;4.722;2023-02-28T07:11:02;1.20;99.90
14555;DHT22;7364;50.870;4.722;2023-02-28T07:13:30;1.20;99.90
14555;DHT22;7364;50.870;4.722;2023-02-28T07:15:59;1.30;99.90
14555;DHT22;7364;50.870;4.722;2023-02-28T07:18:28;1.30;99.90
14555;DHT22;7364;50.870;4.722;2023-02-28T07:20:56;1.30;99.90
14555;DHT22;7364;50.870;4.722;2023-02-28T07:23:24;1.40;99.90
14555;DHT22;7364;50.870;4.722;2023-02-28T07:25:51;1.50;99.90
14555;DHT22;7364;50.870;4.722;2023-02-28T07:28:18;1.40;99.90
14555;DHT22;7364;50.870;4.722;2023-02-28T07:30:46;1.30;99.90
14555;DHT22;7364;50.870;4.722;2023-02-28T07:33:14;1.40;99.90
14555;DHT22;7364;50.870;4.722;2023-02-28T07:35:43;1.40;99.90
14555;DHT22;7364;50.870;4.722;2023-02-28T07:38:11;1.50;99.90
14555;DHT22;7364;50.870;4.722;2023-02-28T07:40:39;1.60;99.90
14555;DHT22;7364;50.870;4.722;2023-02-28T07:43:07;1.70;99.90
14555;DHT22;7364;50.870;4.722;2023-02-28T07:45:35;1.70;99.90
14555;DHT22;7364;50.870;4.722;2023-02-28T07:48:02;1.50;99.90
14555;DHT22;7364;50.870;4.722;2023-02-28T07:50:30;1.50;99.90
14555;DHT22;7364;50.870;4.722;2023-02-28T07:52:59;1.50;99.90
14555;DHT22;7364;50.870;4.722;2023-02-28T07:55:27;1.60;99.90
14555;DHT22;7364;50.870;4.722;2023-02-28T07:57:54;1.50;99.90
14555;DHT22;7364;50.870;4.722;2023-02-28T08:00:23;1.60;99.90
14555;DHT22;7364;50.870;4.722;2023-02-28T08:02:50;1.60;99.90
14555;DHT22;7364;50.870;4.722;2023-02-28T08:05:18;1.80;99.90
14555;DHT22;7364;50.870;4.722;2023-02-28T08:07:45;1.90;99.90
14555;DHT22;7364;50.870;4.722;2023-02-28T08:10:15;2.00;99.90
14555;DHT22;7364;50.870;4.722;2023-02-28T08:12:43;2.20;99.90
14555;DHT22;7364;50.870;4.722;2023-02-28T08:15:11;2.40;99.90
14555;DHT22;7364;50.870;4.722;2023-02-28T08:17:38;2.40;99.90
14555;DHT22;7364;50.870;4.722;2023-02-28T08:20:07;2.50;99.90
14555;DHT22;7364;50.870;4.722;2023-02-28T08:22:36;2.80;99.90
14555;DHT22;7364;50.870;4.722;2023-02-28T08:25:04;2.90;99.90
14555;DHT22;7364;50.870;4.722;2023-02-28T08:27:34;2.80;99.90
14555;DHT22;7364;50.870;4.722;2023-02-28T08:30:02;3.00;99.90
14555;DHT22;7364;50.870;4.722;2023-02-28T08:32:29;3.20;99.90
14555;DHT22;7364;50.870;4.722;2023-02-28T08:34:57;3.20;99.90
14555;DHT22;7364;50.870;4.722;2023-02-28T08:37:24;3.30;99.90
14555;DHT22;7364;50.870;4.722;2023-02-28T08:39:52;3.30;99.90
14555;DHT22;7364;50.870;4.722;2023-02-28T08:42:20;3.40;99.90
14555;DHT22;7364;50.870;4.722;2023-02-28T08:44:49;3.30;99.90
14555;DHT22;7364;50.870;4.722;2023-02-28T08:47:17;3.20;99.90
14555;DHT22;7364;50.870;4.722;2023-02-28T08:49:45;3.30;99.90
14555;DHT22;7364;50.870;4.722;2023-02-28T08:52:12;3.30;99.90
14555;DHT22;7364;50.870;4.722;2023-02-28T08:54:40;3.50;99.90
14555;DHT22;7364;50.870;4.722;2023-02-28T08:57:07;3.70;99.90
14555;DHT22;7364;50.870;4.722;2023-02-28T08:59:35;3.90;99.90
14555;DHT22;7364;50.870;4.722;2023-02-28T09:02:04;3.60;99.90
14555;DHT22;7364;50.870;4.722;2023-02-28T09:04:31;3.90;99.90
14555;DHT22;7364;50.870;4.722;2023-02-28T09:07:00;4.10;99.90
14555;DHT22;7364;50.870;4.722;2023-02-28T09:09:27;3.80;99.90
14555;DHT22;7364;50.870;4.722;2023-02-28T09:11:55;3.60;99.90
14555;DHT22;7364;50.870;4.722;2023-02-28T09:14:23;3.70;99.90
14555;DHT22;7364;50.870;4.722;2023-02-28T09:16:50;4.00;99.90
14555;DHT22;7364;50.870;4.722;2023-02-28T09:19:19;4.20;99.90
14555;DHT22;7364;50.870;4.722;2023-02-28T09:21:46;4.50;99.90
14555;DHT22;7364;50.870;4.722;2023-02-28T09:24:14;4.60;99.80
14555;DHT22;7364;50.870;4.722;2023-02-28T09:26:41;4.70;99.70
14555;DHT22;7364;50.870;4.722;2023-02-28T09:29:08;4.90;98.70
14555;DHT22;7364;50.870;4.722;2023-02-28T09:31:37;4.80;98.10
14555;DHT22;7364;50.870;4.722;2023-02-28T09:34:04;4.90;97.80
14555;DHT22;7364;50.870;4.722;2023-02-28T09:36:33;4.80;98.30
14555;DHT22;7364;50.870;4.722;2023-02-28T09:39:01;5.40;98.30
14555;DHT22;7364;50.870;4.722;2023-02-28T09:41:35;6.20;97.00
14555;DHT22;7364;50.870;4.722;2023-02-28T09:44:07;7.10;95.70
14555;DHT22;7364;50.870;4.722;2023-02-28T09:46:42;7.80;93.90
14555;DHT22;7364;50.870;4.722;2023-02-28T09:49:14;8.40;92.90
14555;DHT22;7364;50.870;4.722;2023-02-28T09:51:49;7.30;91.00
14555;DHT22;7364;50.870;4.722;2023-02-28T09:54:23;8.00;91.80
14555;DHT22;7364;50.870;4.722;2023-02-28T09:56:53;8.00;90.20
14555;DHT22;7364;50.870;4.722;2023-02-28T09:59:37;8.30;90.50
14555;DHT22;7364;50.870;4.722;2023-02-28T10:02:17;9.20;89.00
14555;DHT22;7364;50.870;4.722;2023-02-28T10:04:50;8.20;86.30
14555;DHT22;7364;50.870;4.722;2023-02-28T10:07:34;8.00;87.60
14555;DHT22;7364;50.870;4.722;2023-02-28T10:10:13;8.60;86.20
14555;DHT22;7364;50.870;4.722;2023-02-28T10:12:44;9.20;84.60
14555;DHT22;7364;50.870;4.722;2023-02-28T10:15:14;9.10;81.10
14555;DHT22;7364;50.870;4.722;2023-02-28T10:17:44;8.80;78.90
14555;DHT22;7364;50.870;4.722;2023-02-28T10:20:17;8.90;79.50
14555;DHT22;7364;50.870;4.722;2023-02-28T10:22:53;9.50;78.90
14555;DHT22;7364;50.870;4.722;2023-02-28T10:25:26;10.10;75.80
14555;DHT22;7364;50.870;4.722;2023-02-28T10:27:57;10.50;75.10
14555;DHT22;7364;50.870;4.722;2023-02-28T10:30:28;10.80;73.20
14555;DHT22;7364;50.870;4.722;2023-02-28T10:32:56;11.00;69.70
14555;DHT22;7364;50.870;4.722;2023-02-28T10:35:27;11.00;66.50
14555;DHT22;7364;50.870;4.722;2023-02-28T10:37:59;10.80;67.00
14555;DHT22;7364;50.870;4.722;2023-02-28T10:40:31;11.20;67.10
14555;DHT22;7364;50.870;4.722;2023-02-28T10:43:00;11.00;66.50
14555;DHT22;7364;50.870;4.722;2023-02-28T10:45:29;9.90;69.80
14555;DHT22;7364;50.870;4.722;2023-02-28T10:48:00;10.10;67.20
14555;DHT22;7364;50.870;4.722;2023-02-28T10:50:36;10.20;68.40
14555;DHT22;7364;50.870;4.722;2023-02-28T10:53:17;10.80;66.50
14555;DHT22;7364;50.870;4.722;2023-02-28T10:55:57;11.20;63.90
14555;DHT22;7364;50.870;4.722;2023-02-28T10:58:27;11.30;62.40
14555;DHT22;7364;50.870;4.722;2023-02-28T11:00:55;11.70;62.40
14555;DHT22;7364;50.870;4.722;2023-02-28T11:03:28;12.30;62.50
14555;DHT22;7364;50.870;4.722;2023-02-28T11:05:57;12.40;60.40
14555;DHT22;7364;50.870;4.722;2023-02-28T11:08:26;12.00;60.20
14555;DHT22;7364;50.870;4.722;2023-02-28T11:10:56;10.30;61.90
14555;DHT22;7364;50.870;4.722;2023-02-28T11:13:33;9.80;66.40
14555;DHT22;7364;50.870;4.722;2023-02-28T11:16:04;10.60;63.60
14555;DHT22;7364;50.870;4.722;2023-02-28T11:18:38;11.10;59.20
14555;DHT22;7364;50.870;4.722;2023-02-28T11:21:09;11.60;59.20
14555;DHT22;7364;50.870;4.722;2023-02-28T11:23:44;11.70;59.30
14555;DHT22;7364;50.870;4.722;2023-02-28T11:26:12;11.70;57.10
14555;DHT22;7364;50.870;4.722;2023-02-28T11:28:41;12.20;57.30
14555;DHT22;7364;50.870;4.722;2023-02-28T11:31:18;12.70;55.30
14555;DHT22;7364;50.870;4.722;2023-02-28T11:33:49;12.40;56.60
14555;DHT22;7364;50.870;4.722;2023-02-28T11:36:19;12.30;56.10
14555;DHT22;7364;50.870;4.722;2023-02-28T11:38:53;12.90;55.00
14555;DHT22;7364;50.870;4.722;2023-02-28T11:41:37;13.40;54.10
14555;DHT22;7364;50.870;4.722;2023-02-28T11:44:18;13.50;54.80
14555;DHT22;7364;50.870;4.722;2023-02-28T11:46:54;12.60;54.40
14555;DHT22;7364;50.870;4.722;2023-02-28T11:49:32;13.30;53.50
14555;DHT22;7364;50.870;4.722;2023-02-28T11:52:15;13.70;52.10
14555;DHT22;7364;50.870;4.722;2023-02-28T11:55:02;14.30;52.60
14555;DHT22;7364;50.870;4.722;2023-02-28T11:57:40;14.70;51.40
14555;DHT22;7364;50.870;4.722;2023-02-28T12:00:24;15.00;49.80
14555;DHT22;7364;50.870;4.722;2023-02-28T12:03:06;15.50;49.70
14555;DHT22;7364;50.870;4.722;2023-02-28T12:05:45;16.00;49.10
14555;DHT22;7364;50.870;4.722;2023-02-28T12:08:27;16.00;47.50
14555;DHT22;7364;50.870;4.722;2023-02-28T12:11:09;15.30;47.60
14555;DHT22;7364;50.870;4.722;2023-02-28T12:13:48;15.30;48.50
14555;DHT22;7364;50.870;4.722;2023-02-28T12:16:38;15.20;49.00
14555;DHT22;7364;50.870;4.722;2023-02-28T12:19:19;14.70;49.20
14555;DHT22;7364;50.870;4.722;2023-02-28T12:25:35;16.40;47.70
14555;DHT22;7364;50.870;4.722;2023-02-28T12:28:13;15.20;47.90
14555;DHT22;7364;50.870;4.722;2023-02-28T12:30:47;14.50;49.80
14555;DHT22;7364;50.870;4.722;2023-02-28T12:33:18;15.60;48.70
14555;DHT22;7364;50.870;4.722;2023-02-28T12:35:51;14.40;48.80
14555;DHT22;7364;50.870;4.722;2023-02-28T12:38:22;15.60;47.70
14555;DHT22;7364;50.870;4.722;2023-02-28T12:40:54;16.10;46.70
14555;DHT22;7364;50.870;4.722;2023-02-28T12:43:31;15.60;46.60
14555;DHT22;7364;50.870;4.722;2023-02-28T12:46:04;15.90;47.20
14555;DHT22;7364;50.870;4.722;2023-02-28T12:48:39;16.50;47.20
14555;DHT22;7364;50.870;4.722;2023-02-28T12:51:10;16.30;46.90
14555;DHT22;7364;50.870;4.722;2023-02-28T12:53:51;16.50;47.00
14555;DHT22;7364;50.870;4.722;2023-02-28T12:56:32;17.30;44.40
14555;DHT22;7364;50.870;4.722;2023-02-28T12:59:05;18.10;42.90
14555;DHT22;7364;50.870;4.722;2023-02-28T13:01:47;18.40;42.20
14555;DHT22;7364;50.870;4.722;2023-02-28T13:04:42;18.50;42.20
14555;DHT22;7364;50.870;4.722;2023-02-28T13:10:20;18.80;41.10
14555;DHT22;7364;50.870;4.722;2023-02-28T13:12:50;18.60;41.20
14555;DHT22;7364;50.870;4.722;2023-02-28T13:15:21;18.90;40.80
14555;DHT22;7364;50.870;4.722;2023-02-28T13:17:52;19.30;41.10
14555;DHT22;7364;50.870;4.722;2023-02-28T13:20:21;19.50;38.90
14555;DHT22;7364;50.870;4.722;2023-02-28T13:22:54;18.30;40.00
14555;DHT22;7364;50.870;4.722;2023-02-28T13:25:52;18.70;40.20
14555;DHT22;7364;50.870;4.722;2023-02-28T13:37:42;20.20;37.70
14555;DHT22;7364;50.870;4.722;2023-02-28T13:40:29;20.10;38.80
14555;DHT22;7364;50.870;4.722;2023-02-28T13:42:56;20.00;38.00
14555;DHT22;7364;50.870;4.722;2023-02-28T13:45:28;18.90;38.90
14555;DHT22;7364;50.870;4.722;2023-02-28T13:47:59;18.50;39.60
14555;DHT22;7364;50.870;4.722;2023-02-28T13:50:32;18.70;38.50
14555;DHT22;7364;50.870;4.722;2023-02-28T13:53:26;18.80;39.80
14555;DHT22;7364;50.870;4.722;2023-02-28T13:56:03;18.20;40.10
14555;DHT22;7364;50.870;4.722;2023-02-28T13:58:41;18.80;40.20
14555;DHT22;7364;50.870;4.722;2023-02-28T14:07:19;20.10;37.20
14555;DHT22;7364;50.870;4.722;2023-02-28T14:09:56;20.10;37.60
14555;DHT22;7364;50.870;4.722;2023-02-28T14:12:52;20.50;37.50
14555;DHT22;7364;50.870;4.722;2023-02-28T14:15:54;21.10;37.20
14555;DHT22;7364;50.870;4.722;2023-02-28T14:18:29;21.30;35.60
14555;DHT22;7364;50.870;4.722;2023-02-28T14:21:12;22.20;35.30
14555;DHT22;7364;50.870;4.722;2023-02-28T14:24:10;22.50;35.00
14555;DHT22;7364;50.870;4.722;2023-02-28T14:26:57;22.30;35.10
14555;DHT22;7364;50.870;4.722;2023-02-28T14:32:37;19.70;35.70
14555;DHT22;7364;50.870;4.722;2023-02-28T14:35:20;18.70;36.20
14555;DHT22;7364;50.870;4.722;2023-02-28T14:37:50;17.90;37.20
14555;DHT22;7364;50.870;4.722;2023-02-28T14:40:22;16.90;38.00
14555;DHT22;7364;50.870;4.722;2023-02-28T14:42:56;16.30;38.80
14555;DHT22;7364;50.870;4.722;2023-02-28T14:45:24;15.90;39.00
14555;DHT22;7364;50.870;4.722;2023-02-28T14:47:52;15.10;40.60
14555;DHT22;7364;50.870;4.722;2023-02-28T14:50:21;14.40;40.70
14555;DHT22;7364;50.870;4.722;2023-02-28T14:52:52;14.10;42.20
14555;DHT22;7364;50.870;4.722;2023-02-28T14:55:28;13.90;41.90
14555;DHT22;7364;50.870;4.722;2023-02-28T14:57:57;13.50;42.10
14555;DHT22;7364;50.870;4.722;2023-02-28T15:00:27;13.30;43.20
14555;DHT22;7364;50.870;4.722;2023-02-28T15:02:57;13.20;43.60
14555;DHT22;7364;50.870;4.722;2023-02-28T15:05:27;13.10;42.90
14555;DHT22;7364;50.870;4.722;2023-02-28T15:08:04;12.90;43.00
14555;DHT22;7364;50.870;4.722;2023-02-28T15:10:34;12.70;43.60
14555;DHT22;7364;50.870;4.722;2023-02-28T15:13:04;12.60;44.50
14555;DHT22;7364;50.870;4.722;2023-02-28T15:15:42;12.40;44.50
14555;DHT22;7364;50.870;4.722;2023-02-28T15:18:16;12.30;45.50
14555;DHT22;7364;50.870;4.722;2023-02-28T15:20:49;12.10;44.80
14555;DHT22;7364;50.870;4.722;2023-02-28T15:23:18;12.10;45.50
14555;DHT22;7364;50.870;4.722;2023-02-28T15:25:51;12.00;44.70
14555;DHT22;7364;50.870;4.722;2023-02-28T15:28:21;11.90;45.60
14555;DHT22;7364;50.870;4.722;2023-02-28T15:30:55;11.80;46.10
14555;DHT22;7364;50.870;4.722;2023-02-28T15:33:25;11.70;46.90
14555;DHT22;7364;50.870;4.722;2023-02-28T15:36:11;11.80;45.60
14555;DHT22;7364;50.870;4.722;2023-02-28T15:38:40;11.70;46.10
14555;DHT22;7364;50.870;4.722;2023-02-28T15:41:24;11.50;47.40
14555;DHT22;7364;50.870;4.722;2023-02-28T15:44:17;11.30;48.00
14555;DHT22;7364;50.870;4.722;2023-02-28T15:46:54;11.20;47.80
14555;DHT22;7364;50.870;4.722;2023-02-28T15:49:23;11.20;48.00
14555;DHT22;7364;50.870;4.722;2023-02-28T15:51:57;11.00;49.50
14555;DHT22;7364;50.870;4.722;2023-02-28T15:54:29;11.00;49.00
14555;DHT22;7364;50.870;4.722;2023-02-28T15:57:04;11.00;48.70
14555;DHT22;7364;50.870;4.722;2023-02-28T15:59:36;10.90;48.80
14555;DHT22;7364;50.870;4.722;2023-02-28T16:02:15;10.70;49.70
14555;DHT22;7364;50.870;4.722;2023-02-28T16:04:58;10.70;49.80
14555;DHT22;7364;50.870;4.722;2023-02-28T16:07:26;10.40;51.10
14555;DHT22;7364;50.870;4.722;2023-02-28T16:09:54;10.40;50.60
14555;DHT22;7364;50.870;4.722;2023-02-28T16:12:35;10.40;50.50
14555;DHT22;7364;50.870;4.722;2023-02-28T16:15:07;10.30;50.10
14555;DHT22;7364;50.870;4.722;2023-02-28T16:17:37;10.20;50.50
14555;DHT22;7364;50.870;4.722;2023-02-28T16:20:13;10.00;50.70
14555;DHT22;7364;50.870;4.722;2023-02-28T16:22:41;9.70;52.20
14555;DHT22;7364;50.870;4.722;2023-02-28T16:25:12;9.80;51.90
14555;DHT22;7364;50.870;4.722;2023-02-28T16:27:42;9.80;52.70
14555;DHT22;7364;50.870;4.722;2023-02-28T16:30:19;9.70;52.30
14555;DHT22;7364;50.870;4.722;2023-02-28T16:32:47;9.70;52.30
14555;DHT22;7364;50.870;4.722;2023-02-28T16:35:14;9.70;52.70
14555;DHT22;7364;50.870;4.722;2023-02-28T16:37:43;9.80;52.20
14555;DHT22;7364;50.870;4.722;2023-02-28T16:40:14;9.80;52.20
14555;DHT22;7364;50.870;4.722;2023-02-28T16:42:44;9.90;52.90
14555;DHT22;7364;50.870;4.722;2023-02-28T16:45:17;9.80;52.90
14555;DHT22;7364;50.870;4.722;2023-02-28T16:47:45;9.80;52.80
14555;DHT22;7364;50.870;4.722;2023-02-28T16:50:15;9.80;53.20
14555;DHT22;7364;50.870;4.722;2023-02-28T16:52:42;9.60;53.90
14555;DHT22;7364;50.870;4.722;2023-02-28T16:55:10;9.60;53.30
14555;DHT22;7364;50.870;4.722;2023-02-28T16:57:38;9.60;53.60